<?xml version="1.0" encoding="UTF-8" standalone="no" ?>
<gpx xmlns="http://www.topografix.com/GPX/1/1" xmlns:xsi="http://www.w3.org/2001/XMLSchema-instance" xsi:schemaLocation="http://www.topografix.com/GPX/1/1 http://www.topografix.com/GPX/1/1/gpx.xsd" version="1.1" creator="VisuGPX - https://www.visugpx.com">
  <metadata>
    <name>Préparation Boucieu le Roy 201905 (PierreVigne)</name>
    <desc><![CDATA[Préparation Boucieu le Roy 201905 (PierreVigne)]]></desc>
  </metadata>
  <trk>
    <name><![CDATA[1024684-Parcours Pierre Vigne]]></name>
    <trkseg>
      <trkpt lat="45.03505" lon="4.68212">
        <ele>306</ele>
        <time>2019-02-15T10:22:00Z</time>
      </trkpt>
      <trkpt lat="45.03508" lon="4.68218">
        <ele>306</ele>
        <time>2019-02-15T10:23:00Z</time>
      </trkpt>
      <trkpt lat="45.03522" lon="4.6824">
        <ele>306</ele>
        <time>2019-02-15T10:24:00Z</time>
      </trkpt>
      <trkpt lat="45.0353" lon="4.68263">
        <ele>306</ele>
        <time>2019-02-15T10:25:00Z</time>
      </trkpt>
      <trkpt lat="45.03532" lon="4.68282">
        <ele>305</ele>
        <time>2019-02-15T10:26:00Z</time>
      </trkpt>
      <trkpt lat="45.03535" lon="4.68292">
        <ele>305</ele>
        <time>2019-02-15T10:27:00Z</time>
      </trkpt>
      <trkpt lat="45.03537" lon="4.68298">
        <ele>304</ele>
        <time>2019-02-15T10:28:00Z</time>
      </trkpt>
      <trkpt lat="45.03541" lon="4.68302">
        <ele>304</ele>
        <time>2019-02-15T10:29:00Z</time>
      </trkpt>
      <trkpt lat="45.03543" lon="4.68305">
        <ele>304</ele>
        <time>2019-02-15T10:30:00Z</time>
      </trkpt>
      <trkpt lat="45.03543" lon="4.68305">
        <ele>304</ele>
        <time>2019-02-15T10:31:00Z</time>
      </trkpt>
      <trkpt lat="45.03542" lon="4.6831">
        <ele>304</ele>
        <time>2019-02-15T10:32:00Z</time>
      </trkpt>
      <trkpt lat="45.03539" lon="4.68319">
        <ele>304</ele>
        <time>2019-02-15T10:33:00Z</time>
      </trkpt>
      <trkpt lat="45.03533" lon="4.68328">
        <ele>303</ele>
        <time>2019-02-15T10:34:00Z</time>
      </trkpt>
      <trkpt lat="45.03524" lon="4.68341">
        <ele>303</ele>
        <time>2019-02-15T10:35:00Z</time>
      </trkpt>
      <trkpt lat="45.03518" lon="4.68347">
        <ele>303</ele>
        <time>2019-02-15T10:36:00Z</time>
      </trkpt>
      <trkpt lat="45.03516" lon="4.68349">
        <ele>303</ele>
        <time>2019-02-15T10:37:00Z</time>
      </trkpt>
      <trkpt lat="45.03511" lon="4.68354">
        <ele>303</ele>
        <time>2019-02-15T10:38:00Z</time>
      </trkpt>
      <trkpt lat="45.03503" lon="4.68364">
        <ele>302</ele>
        <time>2019-02-15T10:39:00Z</time>
      </trkpt>
      <trkpt lat="45.03499" lon="4.68374">
        <ele>302</ele>
        <time>2019-02-15T10:40:00Z</time>
      </trkpt>
      <trkpt lat="45.03495" lon="4.68386">
        <ele>302</ele>
        <time>2019-02-15T10:41:00Z</time>
      </trkpt>
      <trkpt lat="45.03492" lon="4.68403">
        <ele>301</ele>
        <time>2019-02-15T10:42:00Z</time>
      </trkpt>
      <trkpt lat="45.03488" lon="4.68427">
        <ele>301</ele>
        <time>2019-02-15T10:43:00Z</time>
      </trkpt>
      <trkpt lat="45.03487" lon="4.68443">
        <ele>300</ele>
        <time>2019-02-15T10:44:00Z</time>
      </trkpt>
      <trkpt lat="45.03485" lon="4.68458">
        <ele>300</ele>
        <time>2019-02-15T10:45:00Z</time>
      </trkpt>
      <trkpt lat="45.03484" lon="4.68474">
        <ele>300</ele>
        <time>2019-02-15T10:46:00Z</time>
      </trkpt>
      <trkpt lat="45.03484" lon="4.68491">
        <ele>299</ele>
        <time>2019-02-15T10:47:00Z</time>
      </trkpt>
      <trkpt lat="45.03486" lon="4.68505">
        <ele>298</ele>
        <time>2019-02-15T10:48:00Z</time>
      </trkpt>
      <trkpt lat="45.03487" lon="4.68514">
        <ele>298</ele>
        <time>2019-02-15T10:49:00Z</time>
      </trkpt>
      <trkpt lat="45.03488" lon="4.68528">
        <ele>298</ele>
        <time>2019-02-15T10:50:00Z</time>
      </trkpt>
      <trkpt lat="45.03486" lon="4.68542">
        <ele>298</ele>
        <time>2019-02-15T10:51:00Z</time>
      </trkpt>
      <trkpt lat="45.03484" lon="4.68558">
        <ele>298</ele>
        <time>2019-02-15T10:52:00Z</time>
      </trkpt>
      <trkpt lat="45.03477" lon="4.68574">
        <ele>299</ele>
        <time>2019-02-15T10:53:00Z</time>
      </trkpt>
      <trkpt lat="45.03474" lon="4.68584">
        <ele>299</ele>
        <time>2019-02-15T10:54:00Z</time>
      </trkpt>
      <trkpt lat="45.0347" lon="4.68594">
        <ele>300</ele>
        <time>2019-02-15T10:55:00Z</time>
      </trkpt>
      <trkpt lat="45.03466" lon="4.68602">
        <ele>300</ele>
        <time>2019-02-15T10:56:00Z</time>
      </trkpt>
      <trkpt lat="45.03462" lon="4.68614">
        <ele>301</ele>
        <time>2019-02-15T10:57:00Z</time>
      </trkpt>
      <trkpt lat="45.0346" lon="4.68622">
        <ele>301</ele>
        <time>2019-02-15T10:58:00Z</time>
      </trkpt>
      <trkpt lat="45.0346" lon="4.68628">
        <ele>301</ele>
        <time>2019-02-15T10:59:00Z</time>
      </trkpt>
      <trkpt lat="45.0346" lon="4.68628">
        <ele>301</ele>
        <time>2019-02-15T11:00:00Z</time>
      </trkpt>
      <trkpt lat="45.03461" lon="4.68638">
        <ele>300</ele>
        <time>2019-02-15T11:01:00Z</time>
      </trkpt>
      <trkpt lat="45.03461" lon="4.68651">
        <ele>300</ele>
        <time>2019-02-15T11:02:00Z</time>
      </trkpt>
      <trkpt lat="45.03463" lon="4.68664">
        <ele>299</ele>
        <time>2019-02-15T11:03:00Z</time>
      </trkpt>
      <trkpt lat="45.03463" lon="4.68689">
        <ele>300</ele>
        <time>2019-02-15T11:04:00Z</time>
      </trkpt>
      <trkpt lat="45.03463" lon="4.68696">
        <ele>301</ele>
        <time>2019-02-15T11:05:00Z</time>
      </trkpt>
      <trkpt lat="45.03462" lon="4.68717">
        <ele>302</ele>
        <time>2019-02-15T11:06:00Z</time>
      </trkpt>
      <trkpt lat="45.03461" lon="4.68738">
        <ele>303</ele>
        <time>2019-02-15T11:07:00Z</time>
      </trkpt>
      <trkpt lat="45.03459" lon="4.68749">
        <ele>304</ele>
        <time>2019-02-15T11:08:00Z</time>
      </trkpt>
      <trkpt lat="45.03455" lon="4.68768">
        <ele>305</ele>
        <time>2019-02-15T11:09:00Z</time>
      </trkpt>
      <trkpt lat="45.03452" lon="4.68782">
        <ele>305</ele>
        <time>2019-02-15T11:10:00Z</time>
      </trkpt>
      <trkpt lat="45.03448" lon="4.68794">
        <ele>306</ele>
        <time>2019-02-15T11:11:00Z</time>
      </trkpt>
      <trkpt lat="45.03444" lon="4.68807">
        <ele>307</ele>
        <time>2019-02-15T11:12:00Z</time>
      </trkpt>
      <trkpt lat="45.03438" lon="4.68818">
        <ele>308</ele>
        <time>2019-02-15T11:13:00Z</time>
      </trkpt>
      <trkpt lat="45.03432" lon="4.6883">
        <ele>309</ele>
        <time>2019-02-15T11:14:00Z</time>
      </trkpt>
      <trkpt lat="45.0343" lon="4.68838">
        <ele>310</ele>
        <time>2019-02-15T11:15:00Z</time>
      </trkpt>
      <trkpt lat="45.03427" lon="4.68847">
        <ele>312</ele>
        <time>2019-02-15T11:16:00Z</time>
      </trkpt>
      <trkpt lat="45.03426" lon="4.68853">
        <ele>313</ele>
        <time>2019-02-15T11:17:00Z</time>
      </trkpt>
      <trkpt lat="45.03426" lon="4.6886">
        <ele>313</ele>
        <time>2019-02-15T11:18:00Z</time>
      </trkpt>
      <trkpt lat="45.03428" lon="4.6887">
        <ele>314</ele>
        <time>2019-02-15T11:19:00Z</time>
      </trkpt>
      <trkpt lat="45.03432" lon="4.68884">
        <ele>314</ele>
        <time>2019-02-15T11:20:00Z</time>
      </trkpt>
      <trkpt lat="45.03434" lon="4.6889">
        <ele>313</ele>
        <time>2019-02-15T11:21:00Z</time>
      </trkpt>
      <trkpt lat="45.03442" lon="4.68906">
        <ele>312</ele>
        <time>2019-02-15T11:22:00Z</time>
      </trkpt>
      <trkpt lat="45.03449" lon="4.68923">
        <ele>311</ele>
        <time>2019-02-15T11:23:00Z</time>
      </trkpt>
      <trkpt lat="45.0346" lon="4.68946">
        <ele>306</ele>
        <time>2019-02-15T11:24:00Z</time>
      </trkpt>
      <trkpt lat="45.03468" lon="4.68967">
        <ele>303</ele>
        <time>2019-02-15T11:25:00Z</time>
      </trkpt>
      <trkpt lat="45.03473" lon="4.68982">
        <ele>301</ele>
        <time>2019-02-15T11:26:00Z</time>
      </trkpt>
      <trkpt lat="45.03473" lon="4.6899">
        <ele>301</ele>
        <time>2019-02-15T11:27:00Z</time>
      </trkpt>
      <trkpt lat="45.03473" lon="4.6899">
        <ele>301</ele>
        <time>2019-02-15T11:28:00Z</time>
      </trkpt>
      <trkpt lat="45.03483" lon="4.68996">
        <ele>297</ele>
        <time>2019-02-15T11:29:00Z</time>
      </trkpt>
      <trkpt lat="45.03491" lon="4.68998">
        <ele>295</ele>
        <time>2019-02-15T11:30:00Z</time>
      </trkpt>
      <trkpt lat="45.035" lon="4.68999">
        <ele>292</ele>
        <time>2019-02-15T11:31:00Z</time>
      </trkpt>
      <trkpt lat="45.03513" lon="4.68998">
        <ele>290</ele>
        <time>2019-02-15T11:32:00Z</time>
      </trkpt>
      <trkpt lat="45.03527" lon="4.68997">
        <ele>288</ele>
        <time>2019-02-15T11:33:00Z</time>
      </trkpt>
      <trkpt lat="45.03535" lon="4.68995">
        <ele>287</ele>
        <time>2019-02-15T11:34:00Z</time>
      </trkpt>
      <trkpt lat="45.03541" lon="4.68994">
        <ele>286</ele>
        <time>2019-02-15T11:35:00Z</time>
      </trkpt>
      <trkpt lat="45.03545" lon="4.68996">
        <ele>285</ele>
        <time>2019-02-15T11:36:00Z</time>
      </trkpt>
      <trkpt lat="45.0355" lon="4.69">
        <ele>284</ele>
        <time>2019-02-15T11:37:00Z</time>
      </trkpt>
      <trkpt lat="45.03558" lon="4.6901">
        <ele>283</ele>
        <time>2019-02-15T11:38:00Z</time>
      </trkpt>
      <trkpt lat="45.03564" lon="4.69019">
        <ele>283</ele>
        <time>2019-02-15T11:39:00Z</time>
      </trkpt>
      <trkpt lat="45.03564" lon="4.69021">
        <ele>283</ele>
        <time>2019-02-15T11:40:00Z</time>
      </trkpt>
      <trkpt lat="45.03562" lon="4.69022">
        <ele>283</ele>
        <time>2019-02-15T11:41:00Z</time>
      </trkpt>
      <trkpt lat="45.03561" lon="4.69022">
        <ele>283</ele>
        <time>2019-02-15T11:42:00Z</time>
      </trkpt>
      <trkpt lat="45.03557" lon="4.69022">
        <ele>284</ele>
        <time>2019-02-15T11:43:00Z</time>
      </trkpt>
      <trkpt lat="45.03554" lon="4.69021">
        <ele>284</ele>
        <time>2019-02-15T11:44:00Z</time>
      </trkpt>
      <trkpt lat="45.03547" lon="4.6902">
        <ele>285</ele>
        <time>2019-02-15T11:45:00Z</time>
      </trkpt>
      <trkpt lat="45.03538" lon="4.69016">
        <ele>286</ele>
        <time>2019-02-15T11:46:00Z</time>
      </trkpt>
      <trkpt lat="45.03532" lon="4.69016">
        <ele>287</ele>
        <time>2019-02-15T11:47:00Z</time>
      </trkpt>
      <trkpt lat="45.03528" lon="4.69015">
        <ele>288</ele>
        <time>2019-02-15T11:48:00Z</time>
      </trkpt>
      <trkpt lat="45.03514" lon="4.69021">
        <ele>290</ele>
        <time>2019-02-15T11:49:00Z</time>
      </trkpt>
      <trkpt lat="45.03501" lon="4.69029">
        <ele>292</ele>
        <time>2019-02-15T11:50:00Z</time>
      </trkpt>
      <trkpt lat="45.03488" lon="4.69038">
        <ele>294</ele>
        <time>2019-02-15T11:51:00Z</time>
      </trkpt>
      <trkpt lat="45.03472" lon="4.69049">
        <ele>296</ele>
        <time>2019-02-15T11:52:00Z</time>
      </trkpt>
      <trkpt lat="45.03458" lon="4.69069">
        <ele>296</ele>
        <time>2019-02-15T11:53:00Z</time>
      </trkpt>
      <trkpt lat="45.03457" lon="4.69072">
        <ele>296</ele>
        <time>2019-02-15T11:54:00Z</time>
      </trkpt>
      <trkpt lat="45.03457" lon="4.69077">
        <ele>295</ele>
        <time>2019-02-15T11:55:00Z</time>
      </trkpt>
      <trkpt lat="45.03458" lon="4.6908">
        <ele>294</ele>
        <time>2019-02-15T11:56:00Z</time>
      </trkpt>
      <trkpt lat="45.03462" lon="4.69086">
        <ele>294</ele>
        <time>2019-02-15T11:57:00Z</time>
      </trkpt>
      <trkpt lat="45.03465" lon="4.6909">
        <ele>295</ele>
        <time>2019-02-15T11:58:00Z</time>
      </trkpt>
      <trkpt lat="45.03485" lon="4.69079">
        <ele>292</ele>
        <time>2019-02-15T11:59:00Z</time>
      </trkpt>
      <trkpt lat="45.03503" lon="4.69069">
        <ele>291</ele>
        <time>2019-02-15T12:00:00Z</time>
      </trkpt>
      <trkpt lat="45.03523" lon="4.69069">
        <ele>289</ele>
        <time>2019-02-15T12:01:00Z</time>
      </trkpt>
      <trkpt lat="45.0356" lon="4.69073">
        <ele>285</ele>
        <time>2019-02-15T12:02:00Z</time>
      </trkpt>
      <trkpt lat="45.0357" lon="4.69068">
        <ele>284</ele>
        <time>2019-02-15T12:03:00Z</time>
      </trkpt>
      <trkpt lat="45.03594" lon="4.69069">
        <ele>280</ele>
        <time>2019-02-15T12:04:00Z</time>
      </trkpt>
      <trkpt lat="45.03621" lon="4.69065">
        <ele>275</ele>
        <time>2019-02-15T12:05:00Z</time>
      </trkpt>
      <trkpt lat="45.03633" lon="4.6907">
        <ele>274</ele>
        <time>2019-02-15T12:06:00Z</time>
      </trkpt>
      <trkpt lat="45.03635" lon="4.69071">
        <ele>273</ele>
        <time>2019-02-15T12:07:00Z</time>
      </trkpt>
      <trkpt lat="45.03645" lon="4.6908">
        <ele>272</ele>
        <time>2019-02-15T12:08:00Z</time>
      </trkpt>
      <trkpt lat="45.0365" lon="4.69088">
        <ele>272</ele>
        <time>2019-02-15T12:09:00Z</time>
      </trkpt>
      <trkpt lat="45.03651" lon="4.69089">
        <ele>271</ele>
        <time>2019-02-15T12:10:00Z</time>
      </trkpt>
      <trkpt lat="45.03652" lon="4.69089">
        <ele>271</ele>
        <time>2019-02-15T12:11:00Z</time>
      </trkpt>
      <trkpt lat="45.03653" lon="4.69089">
        <ele>271</ele>
        <time>2019-02-15T12:12:00Z</time>
      </trkpt>
      <trkpt lat="45.03653" lon="4.69088">
        <ele>271</ele>
        <time>2019-02-15T12:13:00Z</time>
      </trkpt>
      <trkpt lat="45.03657" lon="4.69069">
        <ele>269</ele>
        <time>2019-02-15T12:14:00Z</time>
      </trkpt>
      <trkpt lat="45.03657" lon="4.69064">
        <ele>269</ele>
        <time>2019-02-15T12:15:00Z</time>
      </trkpt>
      <trkpt lat="45.03659" lon="4.69056">
        <ele>268</ele>
        <time>2019-02-15T12:16:00Z</time>
      </trkpt>
      <trkpt lat="45.03664" lon="4.69051">
        <ele>267</ele>
        <time>2019-02-15T12:17:00Z</time>
      </trkpt>
      <trkpt lat="45.03668" lon="4.69043">
        <ele>266</ele>
        <time>2019-02-15T12:18:00Z</time>
      </trkpt>
      <trkpt lat="45.03671" lon="4.69036">
        <ele>266</ele>
        <time>2019-02-15T12:19:00Z</time>
      </trkpt>
      <trkpt lat="45.03673" lon="4.69029">
        <ele>266</ele>
        <time>2019-02-15T12:20:00Z</time>
      </trkpt>
      <trkpt lat="45.03673" lon="4.69024">
        <ele>265</ele>
        <time>2019-02-15T12:21:00Z</time>
      </trkpt>
      <trkpt lat="45.03674" lon="4.69009">
        <ele>265</ele>
        <time>2019-02-15T12:22:00Z</time>
      </trkpt>
      <trkpt lat="45.03676" lon="4.68989">
        <ele>265</ele>
        <time>2019-02-15T12:23:00Z</time>
      </trkpt>
      <trkpt lat="45.03677" lon="4.68965">
        <ele>265</ele>
        <time>2019-02-15T12:24:00Z</time>
      </trkpt>
      <trkpt lat="45.03678" lon="4.6894">
        <ele>265</ele>
        <time>2019-02-15T12:25:00Z</time>
      </trkpt>
      <trkpt lat="45.03678" lon="4.68932">
        <ele>265</ele>
        <time>2019-02-15T12:26:00Z</time>
      </trkpt>
      <trkpt lat="45.03678" lon="4.68922">
        <ele>266</ele>
        <time>2019-02-15T12:27:00Z</time>
      </trkpt>
      <trkpt lat="45.0368" lon="4.68909">
        <ele>266</ele>
        <time>2019-02-15T12:28:00Z</time>
      </trkpt>
      <trkpt lat="45.03691" lon="4.68878">
        <ele>267</ele>
        <time>2019-02-15T12:29:00Z</time>
      </trkpt>
      <trkpt lat="45.037" lon="4.68853">
        <ele>268</ele>
        <time>2019-02-15T12:30:00Z</time>
      </trkpt>
      <trkpt lat="45.03706" lon="4.68835">
        <ele>269</ele>
        <time>2019-02-15T12:31:00Z</time>
      </trkpt>
      <trkpt lat="45.0371" lon="4.68825">
        <ele>269</ele>
        <time>2019-02-15T12:32:00Z</time>
      </trkpt>
      <trkpt lat="45.03711" lon="4.68815">
        <ele>269</ele>
        <time>2019-02-15T12:33:00Z</time>
      </trkpt>
      <trkpt lat="45.03712" lon="4.68809">
        <ele>269</ele>
        <time>2019-02-15T12:34:00Z</time>
      </trkpt>
      <trkpt lat="45.03712" lon="4.68794">
        <ele>269</ele>
        <time>2019-02-15T12:35:00Z</time>
      </trkpt>
      <trkpt lat="45.03711" lon="4.68781">
        <ele>269</ele>
        <time>2019-02-15T12:36:00Z</time>
      </trkpt>
      <trkpt lat="45.03709" lon="4.68765">
        <ele>270</ele>
        <time>2019-02-15T12:37:00Z</time>
      </trkpt>
      <trkpt lat="45.03704" lon="4.68745">
        <ele>271</ele>
        <time>2019-02-15T12:38:00Z</time>
      </trkpt>
      <trkpt lat="45.03703" lon="4.68742">
        <ele>271</ele>
        <time>2019-02-15T12:39:00Z</time>
      </trkpt>
      <trkpt lat="45.03702" lon="4.6873">
        <ele>272</ele>
        <time>2019-02-15T12:40:00Z</time>
      </trkpt>
      <trkpt lat="45.03699" lon="4.68715">
        <ele>273</ele>
        <time>2019-02-15T12:41:00Z</time>
      </trkpt>
      <trkpt lat="45.03694" lon="4.68697">
        <ele>275</ele>
        <time>2019-02-15T12:42:00Z</time>
      </trkpt>
      <trkpt lat="45.03686" lon="4.68676">
        <ele>277</ele>
        <time>2019-02-15T12:43:00Z</time>
      </trkpt>
      <trkpt lat="45.03682" lon="4.68662">
        <ele>278</ele>
        <time>2019-02-15T12:44:00Z</time>
      </trkpt>
      <trkpt lat="45.0368" lon="4.68656">
        <ele>279</ele>
        <time>2019-02-15T12:45:00Z</time>
      </trkpt>
      <trkpt lat="45.03675" lon="4.68641">
        <ele>281</ele>
        <time>2019-02-15T12:46:00Z</time>
      </trkpt>
      <trkpt lat="45.03666" lon="4.68614">
        <ele>283</ele>
        <time>2019-02-15T12:47:00Z</time>
      </trkpt>
      <trkpt lat="45.0366" lon="4.68598">
        <ele>285</ele>
        <time>2019-02-15T12:48:00Z</time>
      </trkpt>
      <trkpt lat="45.03656" lon="4.68584">
        <ele>286</ele>
        <time>2019-02-15T12:49:00Z</time>
      </trkpt>
      <trkpt lat="45.03655" lon="4.68571">
        <ele>287</ele>
        <time>2019-02-15T12:50:00Z</time>
      </trkpt>
      <trkpt lat="45.03655" lon="4.68563">
        <ele>287</ele>
        <time>2019-02-15T12:51:00Z</time>
      </trkpt>
      <trkpt lat="45.03659" lon="4.68552">
        <ele>288</ele>
        <time>2019-02-15T12:52:00Z</time>
      </trkpt>
      <trkpt lat="45.03662" lon="4.68547">
        <ele>289</ele>
        <time>2019-02-15T12:53:00Z</time>
      </trkpt>
      <trkpt lat="45.03662" lon="4.68536">
        <ele>289</ele>
        <time>2019-02-15T12:54:00Z</time>
      </trkpt>
      <trkpt lat="45.03663" lon="4.68526">
        <ele>290</ele>
        <time>2019-02-15T12:55:00Z</time>
      </trkpt>
      <trkpt lat="45.03665" lon="4.68516">
        <ele>291</ele>
        <time>2019-02-15T12:56:00Z</time>
      </trkpt>
      <trkpt lat="45.0367" lon="4.68504">
        <ele>292</ele>
        <time>2019-02-15T12:57:00Z</time>
      </trkpt>
      <trkpt lat="45.03682" lon="4.68485">
        <ele>293</ele>
        <time>2019-02-15T12:58:00Z</time>
      </trkpt>
      <trkpt lat="45.03696" lon="4.68467">
        <ele>295</ele>
        <time>2019-02-15T12:59:00Z</time>
      </trkpt>
      <trkpt lat="45.03706" lon="4.68454">
        <ele>296</ele>
        <time>2019-02-15T13:00:00Z</time>
      </trkpt>
      <trkpt lat="45.03712" lon="4.68441">
        <ele>297</ele>
        <time>2019-02-15T13:01:00Z</time>
      </trkpt>
      <trkpt lat="45.03716" lon="4.68426">
        <ele>299</ele>
        <time>2019-02-15T13:02:00Z</time>
      </trkpt>
      <trkpt lat="45.03717" lon="4.68408">
        <ele>300</ele>
        <time>2019-02-15T13:03:00Z</time>
      </trkpt>
      <trkpt lat="45.03716" lon="4.68395">
        <ele>301</ele>
        <time>2019-02-15T13:04:00Z</time>
      </trkpt>
      <trkpt lat="45.03713" lon="4.68386">
        <ele>301</ele>
        <time>2019-02-15T13:05:00Z</time>
      </trkpt>
      <trkpt lat="45.03713" lon="4.68386">
        <ele>301</ele>
        <time>2019-02-15T13:06:00Z</time>
      </trkpt>
      <trkpt lat="45.03704" lon="4.68376">
        <ele>302</ele>
        <time>2019-02-15T13:07:00Z</time>
      </trkpt>
      <trkpt lat="45.03688" lon="4.68359">
        <ele>302</ele>
        <time>2019-02-15T13:08:00Z</time>
      </trkpt>
      <trkpt lat="45.03682" lon="4.68348">
        <ele>303</ele>
        <time>2019-02-15T13:09:00Z</time>
      </trkpt>
      <trkpt lat="45.03677" lon="4.68334">
        <ele>304</ele>
        <time>2019-02-15T13:10:00Z</time>
      </trkpt>
      <trkpt lat="45.03674" lon="4.68313">
        <ele>305</ele>
        <time>2019-02-15T13:11:00Z</time>
      </trkpt>
      <trkpt lat="45.0367" lon="4.68295">
        <ele>306</ele>
        <time>2019-02-15T13:12:00Z</time>
      </trkpt>
      <trkpt lat="45.03668" lon="4.6827">
        <ele>308</ele>
        <time>2019-02-15T13:13:00Z</time>
      </trkpt>
      <trkpt lat="45.03668" lon="4.68267">
        <ele>308</ele>
        <time>2019-02-15T13:14:00Z</time>
      </trkpt>
      <trkpt lat="45.03665" lon="4.68263">
        <ele>308</ele>
        <time>2019-02-15T13:15:00Z</time>
      </trkpt>
      <trkpt lat="45.03665" lon="4.68263">
        <ele>308</ele>
        <time>2019-02-15T13:16:00Z</time>
      </trkpt>
      <trkpt lat="45.0366" lon="4.68259">
        <ele>308</ele>
        <time>2019-02-15T13:17:00Z</time>
      </trkpt>
      <trkpt lat="45.03652" lon="4.68255">
        <ele>308</ele>
        <time>2019-02-15T13:18:00Z</time>
      </trkpt>
      <trkpt lat="45.03647" lon="4.68256">
        <ele>308</ele>
        <time>2019-02-15T13:19:00Z</time>
      </trkpt>
      <trkpt lat="45.03627" lon="4.68258">
        <ele>307</ele>
        <time>2019-02-15T13:20:00Z</time>
      </trkpt>
      <trkpt lat="45.03604" lon="4.68265">
        <ele>306</ele>
        <time>2019-02-15T13:21:00Z</time>
      </trkpt>
      <trkpt lat="45.0359" lon="4.6827">
        <ele>305</ele>
        <time>2019-02-15T13:22:00Z</time>
      </trkpt>
      <trkpt lat="45.03574" lon="4.68284">
        <ele>304</ele>
        <time>2019-02-15T13:23:00Z</time>
      </trkpt>
      <trkpt lat="45.03569" lon="4.68288">
        <ele>304</ele>
        <time>2019-02-15T13:24:00Z</time>
      </trkpt>
      <trkpt lat="45.03559" lon="4.68298">
        <ele>304</ele>
        <time>2019-02-15T13:25:00Z</time>
      </trkpt>
      <trkpt lat="45.0355" lon="4.68304">
        <ele>304</ele>
        <time>2019-02-15T13:26:00Z</time>
      </trkpt>
      <trkpt lat="45.03543" lon="4.68305">
        <ele>304</ele>
        <time>2019-02-15T13:27:00Z</time>
      </trkpt>
      <trkpt lat="45.03543" lon="4.68305">
        <ele>304</ele>
        <time>2019-02-15T13:28:00Z</time>
      </trkpt>
      <trkpt lat="45.03541" lon="4.68302">
        <ele>304</ele>
        <time>2019-02-15T13:29:00Z</time>
      </trkpt>
      <trkpt lat="45.03537" lon="4.68298">
        <ele>304</ele>
        <time>2019-02-15T13:30:00Z</time>
      </trkpt>
      <trkpt lat="45.03535" lon="4.68292">
        <ele>305</ele>
        <time>2019-02-15T13:31:00Z</time>
      </trkpt>
      <trkpt lat="45.03532" lon="4.68282">
        <ele>305</ele>
        <time>2019-02-15T13:32:00Z</time>
      </trkpt>
      <trkpt lat="45.0353" lon="4.68263">
        <ele>306</ele>
        <time>2019-02-15T13:33:00Z</time>
      </trkpt>
      <trkpt lat="45.03522" lon="4.6824">
        <ele>306</ele>
        <time>2019-02-15T13:34:00Z</time>
      </trkpt>
      <trkpt lat="45.03508" lon="4.68218">
        <ele>306</ele>
        <time>2019-02-15T13:35:00Z</time>
      </trkpt>
      <trkpt lat="45.03505" lon="4.68212">
        <ele>306</ele>
        <time>2019-02-15T13:36:00Z</time>
      </trkpt>
    </trkseg>
  </trk>
</gpx>